N894A SADF-SULS
Flight info
| Callsign | N894A |
|---|---|
| Flight time | 0h 57m |
| Altitude | 15000 |
| Route | DCT DORVO A305 TOKAM CRO DCT LDS |
| Aircraft | TBM8/L-SG/C |
Departure
| Time | 2026-04-26 21:23 |
|---|---|
| Airport | San Fernando Airport (SADF) |
Arrival
| Time | 2026-04-26 22:20 |
|---|---|
| Airport | Capitan Corbeta CA Curbelo International Airport (SULS) |
| Time | Latitude | Longitude | Altitude | Speed | Heading |
|---|---|---|---|---|---|
| 2026-04-26 20:58 | -34.45545 | -58.58360 | 22 ft | 0 kts | 201° |
| 2026-04-26 21:12 | -34.45548 | -58.58363 | 22 ft | 2 kts | 239° |
| 2026-04-26 21:12 | -34.45517 | -58.58375 | 22 ft | 10 kts | 356° |
| 2026-04-26 21:13 | -34.45463 | -58.58288 | 22 ft | 19 kts | 65° |
| 2026-04-26 21:13 | -34.45390 | -58.58116 | 22 ft | 28 kts | 63° |
| 2026-04-26 21:13 | -34.45314 | -58.57984 | 22 ft | 8 kts | 336° |
| 2026-04-26 21:13 | -34.45268 | -58.58016 | 22 ft | 8 kts | 332° |
| 2026-04-26 21:14 | -34.45208 | -58.58059 | 22 ft | 12 kts | 328° |
| 2026-04-26 21:14 | -34.45131 | -58.58116 | 22 ft | 14 kts | 331° |
| 2026-04-26 21:14 | -34.45041 | -58.58180 | 22 ft | 16 kts | 330° |
| 2026-04-26 21:14 | -34.44947 | -58.58245 | 22 ft | 8 kts | 334° |
| 2026-04-26 21:15 | -34.44929 | -58.58258 | 22 ft | 0 kts | 329° |
| 2026-04-26 21:15 | -34.44901 | -58.58281 | 22 ft | 0 kts | 324° |
| 2026-04-26 21:19 | -34.44870 | -58.58313 | 22 ft | 11 kts | 318° |
| 2026-04-26 21:19 | -34.44839 | -58.58360 | 23 ft | 1 kts | 249° |
| 2026-04-26 21:20 | -34.44846 | -58.58370 | 23 ft | 0 kts | 227° |
| 2026-04-26 21:22 | -34.44846 | -58.58369 | 23 ft | 2 kts | 226° |
| 2026-04-26 21:22 | -34.44979 | -58.58530 | 22 ft | 54 kts | 225° |
| 2026-04-26 21:22 | -34.45361 | -58.58955 | 98 ft | 87 kts | 226° |
| 2026-04-26 21:23 | -34.46415 | -58.59783 | 732 ft | 98 kts | 206° |
| 2026-04-26 21:23 | -34.47060 | -58.60080 | 975 ft | 102 kts | 223° |
| 2026-04-26 21:23 | -34.47637 | -58.60642 | 1226 ft | 111 kts | 218° |
| 2026-04-26 21:23 | -34.48223 | -58.61259 | 1494 ft | 113 kts | 239° |
| 2026-04-26 21:24 | -34.48437 | -58.62185 | 1743 ft | 116 kts | 261° |
| 2026-04-26 21:24 | -34.48157 | -58.63139 | 1970 ft | 134 kts | 297° |
| 2026-04-26 21:24 | -34.47267 | -58.63785 | 1994 ft | 163 kts | 326° |
| 2026-04-26 21:24 | -34.46164 | -58.64221 | 1991 ft | 175 kts | 340° |
| 2026-04-26 21:25 | -34.44915 | -58.63905 | 1990 ft | 196 kts | 24° |
| 2026-04-26 21:25 | -34.43794 | -58.62939 | 2001 ft | 198 kts | 32° |
| 2026-04-26 21:25 | -34.42674 | -58.61962 | 2011 ft | 198 kts | 31° |
| 2026-04-26 21:25 | -34.41621 | -58.60907 | 2001 ft | 200 kts | 39° |
| 2026-04-26 21:26 | -34.40598 | -58.59776 | 2008 ft | 199 kts | 39° |
| 2026-04-26 21:26 | -34.39572 | -58.58645 | 2005 ft | 200 kts | 39° |
| 2026-04-26 21:26 | -34.38553 | -58.57506 | 2005 ft | 200 kts | 39° |
| 2026-04-26 21:26 | -34.37538 | -58.56344 | 2003 ft | 201 kts | 39° |
| 2026-04-26 21:27 | -34.36523 | -58.55179 | 2001 ft | 202 kts | 39° |
| 2026-04-26 21:27 | -34.35516 | -58.53992 | 1993 ft | 203 kts | 48° |
| 2026-04-26 21:27 | -34.34959 | -58.52462 | 2000 ft | 198 kts | 88° |
| 2026-04-26 21:27 | -34.35208 | -58.50905 | 1992 ft | 185 kts | 122° |
| 2026-04-26 21:28 | -34.35732 | -58.49490 | 1997 ft | 184 kts | 123° |
| 2026-04-26 21:28 | -34.36245 | -58.48104 | 2191 ft | 174 kts | 123° |
| 2026-04-26 21:28 | -34.36720 | -58.46814 | 2485 ft | 163 kts | 124° |
| 2026-04-26 21:28 | -34.37177 | -58.45587 | 2792 ft | 157 kts | 126° |
| 2026-04-26 21:29 | -34.37616 | -58.44411 | 3087 ft | 153 kts | 126° |
| 2026-04-26 21:29 | -34.38051 | -58.43246 | 3379 ft | 151 kts | 126° |
| 2026-04-26 21:29 | -34.38478 | -58.42099 | 3678 ft | 148 kts | 126° |
| 2026-04-26 21:29 | -34.38900 | -58.40967 | 3981 ft | 147 kts | 126° |
| 2026-04-26 21:30 | -34.39317 | -58.39846 | 4286 ft | 145 kts | 127° |
| 2026-04-26 21:30 | -34.39730 | -58.38736 | 4598 ft | 144 kts | 127° |
| 2026-04-26 21:30 | -34.40138 | -58.37637 | 4900 ft | 142 kts | 127° |
| 2026-04-26 21:30 | -34.40541 | -58.36553 | 5205 ft | 140 kts | 128° |
| 2026-04-26 21:31 | -34.40939 | -58.35483 | 5511 ft | 138 kts | 128° |
| 2026-04-26 21:31 | -34.41329 | -58.34430 | 5821 ft | 136 kts | 129° |
| 2026-04-26 21:31 | -34.41712 | -58.33397 | 6124 ft | 135 kts | 129° |
| 2026-04-26 21:31 | -34.42095 | -58.32362 | 6437 ft | 133 kts | 130° |
| 2026-04-26 21:32 | -34.42466 | -58.31360 | 6724 ft | 132 kts | 130° |
| 2026-04-26 21:32 | -34.42851 | -58.30361 | 7020 ft | 130 kts | 131° |
| 2026-04-26 21:32 | -34.43226 | -58.29371 | 7312 ft | 128 kts | 130° |
| 2026-04-26 21:32 | -34.43589 | -58.28394 | 7612 ft | 126 kts | 129° |
| 2026-04-26 21:33 | -34.43940 | -58.27431 | 7910 ft | 123 kts | 131° |
| 2026-04-26 21:33 | -34.44286 | -58.26501 | 8210 ft | 119 kts | 130° |
| 2026-04-26 21:33 | -34.44612 | -58.25605 | 8506 ft | 112 kts | 131° |
| 2026-04-26 21:33 | -34.44906 | -58.24764 | 8731 ft | 108 kts | 131° |
| 2026-04-26 21:34 | -34.45220 | -58.23950 | 8881 ft | 110 kts | 132° |
| 2026-04-26 21:34 | -34.45536 | -58.23096 | 9018 ft | 114 kts | 133° |
| 2026-04-26 21:34 | -34.45914 | -58.22190 | 9125 ft | 128 kts | 131° |
| 2026-04-26 21:34 | -34.46316 | -58.21137 | 9256 ft | 147 kts | 127° |
| 2026-04-26 21:35 | -34.46774 | -58.19922 | 9400 ft | 170 kts | 125° |
| 2026-04-26 21:35 | -34.47287 | -58.18526 | 9539 ft | 193 kts | 123° |
| 2026-04-26 21:35 | -34.47852 | -58.16962 | 9673 ft | 212 kts | 122° |
| 2026-04-26 21:35 | -34.48465 | -58.15262 | 9797 ft | 228 kts | 122° |
| 2026-04-26 21:36 | -34.49111 | -58.13485 | 9901 ft | 239 kts | 122° |
| 2026-04-26 21:36 | -34.49575 | -58.12218 | 9929 ft | 247 kts | 121° |
| 2026-04-26 21:36 | -34.50528 | -58.09623 | 9937 ft | 260 kts | 121° |
| 2026-04-26 21:36 | -34.51272 | -58.07592 | 9907 ft | 267 kts | 121° |
| 2026-04-26 21:37 | -34.52032 | -58.05518 | 9915 ft | 271 kts | 121° |
| 2026-04-26 21:37 | -34.52803 | -58.03414 | 9912 ft | 274 kts | 121° |
| 2026-04-26 21:37 | -34.53576 | -58.01319 | 9907 ft | 269 kts | 121° |
| 2026-04-26 21:37 | -34.54332 | -57.99257 | 9905 ft | 266 kts | 121° |
| 2026-04-26 21:38 | -34.55073 | -57.97216 | 9900 ft | 264 kts | 121° |
| 2026-04-26 21:38 | -34.55814 | -57.95186 | 9899 ft | 262 kts | 121° |
| 2026-04-26 21:38 | -34.56540 | -57.93203 | 10028 ft | 255 kts | 121° |
| 2026-04-26 21:38 | -34.57221 | -57.91308 | 10517 ft | 237 kts | 121° |
| 2026-04-26 21:39 | -34.57864 | -57.89534 | 11007 ft | 223 kts | 122° |
| 2026-04-26 21:39 | -34.58479 | -57.87853 | 11505 ft | 214 kts | 122° |
| 2026-04-26 21:39 | -34.59075 | -57.86212 | 12014 ft | 209 kts | 123° |
| 2026-04-26 21:39 | -34.59656 | -57.84621 | 12530 ft | 204 kts | 123° |
| 2026-04-26 21:40 | -34.60214 | -57.83091 | 13047 ft | 198 kts | 123° |
| 2026-04-26 21:40 | -34.60761 | -57.81583 | 13576 ft | 192 kts | 124° |
| 2026-04-26 21:40 | -34.61287 | -57.80128 | 14050 ft | 184 kts | 125° |
| 2026-04-26 21:40 | -34.61781 | -57.78745 | 14498 ft | 172 kts | 127° |
| 2026-04-26 21:41 | -34.62248 | -57.77462 | 14867 ft | 166 kts | 130° |
| 2026-04-26 21:41 | -34.62771 | -57.76117 | 14888 ft | 187 kts | 130° |
| 2026-04-26 21:41 | -34.63360 | -57.74595 | 14903 ft | 211 kts | 126° |
| 2026-04-26 21:41 | -34.63983 | -57.72880 | 14907 ft | 232 kts | 124° |
| 2026-04-26 21:42 | -34.64639 | -57.71036 | 14906 ft | 249 kts | 123° |
| 2026-04-26 21:42 | -34.65344 | -57.69060 | 14904 ft | 261 kts | 122° |
| 2026-04-26 21:42 | -34.66087 | -57.66998 | 14902 ft | 270 kts | 122° |
| 2026-04-26 21:42 | -34.66851 | -57.64885 | 14901 ft | 277 kts | 122° |
| 2026-04-26 21:43 | -34.67631 | -57.62729 | 14902 ft | 281 kts | 122° |
| 2026-04-26 21:43 | -34.68422 | -57.60539 | 14903 ft | 284 kts | 122° |
| 2026-04-26 21:43 | -34.69219 | -57.58332 | 14904 ft | 286 kts | 121° |
| 2026-04-26 21:43 | -34.70019 | -57.56117 | 14906 ft | 287 kts | 121° |
| 2026-04-26 21:44 | -34.70823 | -57.53891 | 14908 ft | 288 kts | 121° |
| 2026-04-26 21:44 | -34.71554 | -57.51613 | 14903 ft | 294 kts | 110° |
| 2026-04-26 21:44 | -34.71824 | -57.49125 | 14903 ft | 299 kts | 99° |
| 2026-04-26 21:44 | -34.72020 | -57.46647 | 14902 ft | 298 kts | 101° |
| 2026-04-26 21:45 | -34.72247 | -57.44145 | 14906 ft | 298 kts | 101° |
| 2026-04-26 21:45 | -34.72462 | -57.41636 | 14900 ft | 298 kts | 100° |
| 2026-04-26 21:45 | -34.72667 | -57.39124 | 14902 ft | 298 kts | 99° |
| 2026-04-26 21:45 | -34.72874 | -57.36618 | 14905 ft | 298 kts | 100° |
| 2026-04-26 21:46 | -34.73086 | -57.34110 | 14901 ft | 298 kts | 100° |
| 2026-04-26 21:46 | -34.73296 | -57.31598 | 14899 ft | 299 kts | 99° |
| 2026-04-26 21:46 | -34.73503 | -57.29082 | 14898 ft | 299 kts | 99° |
| 2026-04-26 21:46 | -34.73711 | -57.26572 | 14896 ft | 299 kts | 99° |
| 2026-04-26 21:47 | -34.73919 | -57.24058 | 14898 ft | 299 kts | 99° |
| 2026-04-26 21:47 | -34.74126 | -57.21542 | 14896 ft | 299 kts | 99° |
| 2026-04-26 21:47 | -34.74330 | -57.19062 | 14892 ft | 299 kts | 99° |
| 2026-04-26 21:47 | -34.74536 | -57.16545 | 14894 ft | 299 kts | 99° |
| 2026-04-26 21:48 | -34.74742 | -57.14031 | 14893 ft | 299 kts | 99° |
| 2026-04-26 21:48 | -34.74946 | -57.11518 | 14893 ft | 299 kts | 99° |
| 2026-04-26 21:48 | -34.75151 | -57.09004 | 14895 ft | 299 kts | 99° |
| 2026-04-26 21:48 | -34.75355 | -57.06486 | 14892 ft | 299 kts | 99° |
| 2026-04-26 21:49 | -34.75559 | -57.03969 | 14889 ft | 299 kts | 99° |
| 2026-04-26 21:49 | -34.75763 | -57.01457 | 14889 ft | 299 kts | 99° |
| 2026-04-26 21:49 | -34.75965 | -56.98971 | 14889 ft | 299 kts | 99° |
| 2026-04-26 21:49 | -34.76165 | -56.96456 | 14883 ft | 299 kts | 99° |
| 2026-04-26 21:50 | -34.76364 | -56.93929 | 14885 ft | 299 kts | 99° |
| 2026-04-26 21:50 | -34.76496 | -56.92264 | 14886 ft | 299 kts | 99° |
| 2026-04-26 21:50 | -34.76763 | -56.88900 | 14885 ft | 299 kts | 99° |
| 2026-04-26 21:50 | -34.76961 | -56.86382 | 14881 ft | 299 kts | 99° |
| 2026-04-26 21:51 | -34.77158 | -56.83873 | 14879 ft | 299 kts | 99° |
| 2026-04-26 21:51 | -34.77353 | -56.81392 | 14876 ft | 299 kts | 99° |
| 2026-04-26 21:51 | -34.77549 | -56.78878 | 14875 ft | 299 kts | 99° |
| 2026-04-26 21:51 | -34.77745 | -56.76364 | 14870 ft | 298 kts | 99° |
| 2026-04-26 21:52 | -34.77941 | -56.73851 | 14872 ft | 298 kts | 99° |
| 2026-04-26 21:52 | -34.78136 | -56.71337 | 14871 ft | 298 kts | 98° |
| 2026-04-26 21:52 | -34.78330 | -56.68826 | 14869 ft | 298 kts | 99° |
| 2026-04-26 21:52 | -34.78524 | -56.66313 | 14860 ft | 299 kts | 98° |
| 2026-04-26 21:53 | -34.78717 | -56.63800 | 14856 ft | 299 kts | 98° |
| 2026-04-26 21:53 | -34.78908 | -56.61312 | 14856 ft | 299 kts | 98° |
| 2026-04-26 21:53 | -34.79101 | -56.58798 | 14850 ft | 297 kts | 98° |
| 2026-04-26 21:53 | -34.79292 | -56.56295 | 14851 ft | 298 kts | 98° |
| 2026-04-26 21:54 | -34.79481 | -56.53784 | 14849 ft | 298 kts | 98° |
| 2026-04-26 21:54 | -34.79672 | -56.51272 | 14848 ft | 299 kts | 98° |
| 2026-04-26 21:54 | -34.79863 | -56.48755 | 14844 ft | 299 kts | 98° |
| 2026-04-26 21:54 | -34.80053 | -56.46235 | 14845 ft | 299 kts | 98° |
| 2026-04-26 21:55 | -34.80239 | -56.43754 | 14842 ft | 299 kts | 98° |
| 2026-04-26 21:55 | -34.80432 | -56.41191 | 14843 ft | 299 kts | 98° |
| 2026-04-26 21:55 | -34.80618 | -56.38705 | 14842 ft | 300 kts | 98° |
| 2026-04-26 21:55 | -34.80807 | -56.36176 | 14841 ft | 300 kts | 98° |
| 2026-04-26 21:56 | -34.80994 | -56.33649 | 14838 ft | 300 kts | 98° |
| 2026-04-26 21:56 | -34.81182 | -56.31122 | 14839 ft | 300 kts | 98° |
| 2026-04-26 21:56 | -34.81369 | -56.28596 | 14838 ft | 300 kts | 98° |
| 2026-04-26 21:56 | -34.81555 | -56.26062 | 14840 ft | 300 kts | 98° |
| 2026-04-26 21:57 | -34.81742 | -56.23534 | 14839 ft | 301 kts | 98° |
| 2026-04-26 21:57 | -34.81928 | -56.20996 | 14835 ft | 301 kts | 98° |
| 2026-04-26 21:57 | -34.82112 | -56.18459 | 14834 ft | 301 kts | 98° |
| 2026-04-26 21:57 | -34.82296 | -56.15946 | 14837 ft | 302 kts | 98° |
| 2026-04-26 21:58 | -34.82482 | -56.13400 | 14837 ft | 302 kts | 98° |
| 2026-04-26 21:58 | -34.82666 | -56.10854 | 14840 ft | 302 kts | 98° |
| 2026-04-26 21:58 | -34.82849 | -56.08307 | 14839 ft | 302 kts | 98° |
| 2026-04-26 21:58 | -34.83033 | -56.05762 | 14841 ft | 302 kts | 98° |
| 2026-04-26 21:59 | -34.83217 | -56.03210 | 14838 ft | 303 kts | 98° |
| 2026-04-26 21:59 | -34.83326 | -56.00654 | 14839 ft | 303 kts | 94° |
| 2026-04-26 21:59 | -34.83393 | -55.98079 | 14840 ft | 303 kts | 94° |
| 2026-04-26 21:59 | -34.83480 | -55.95518 | 14839 ft | 303 kts | 95° |
| 2026-04-26 22:00 | -34.83564 | -55.92959 | 14837 ft | 303 kts | 94° |
| 2026-04-26 22:00 | -34.83640 | -55.90399 | 14839 ft | 303 kts | 94° |
| 2026-04-26 22:00 | -34.83715 | -55.87836 | 14837 ft | 303 kts | 94° |
| 2026-04-26 22:00 | -34.83792 | -55.85272 | 14836 ft | 303 kts | 94° |
| 2026-04-26 22:01 | -34.83868 | -55.82743 | 14832 ft | 303 kts | 94° |
| 2026-04-26 22:01 | -34.83890 | -55.80187 | 14832 ft | 303 kts | 86° |
| 2026-04-26 22:01 | -34.83549 | -55.77629 | 14625 ft | 311 kts | 76° |
| 2026-04-26 22:01 | -34.83047 | -55.75070 | 14306 ft | 303 kts | 77° |
| 2026-04-26 22:02 | -34.82684 | -55.72653 | 13981 ft | 280 kts | 82° |
| 2026-04-26 22:02 | -34.82484 | -55.71137 | 13770 ft | 269 kts | 81° |
| 2026-04-26 22:02 | -34.82056 | -55.68236 | 13296 ft | 255 kts | 80° |
| 2026-04-26 22:02 | -34.81736 | -55.66141 | 12936 ft | 249 kts | 80° |
| 2026-04-26 22:03 | -34.81434 | -55.64087 | 12581 ft | 243 kts | 81° |
| 2026-04-26 22:03 | -34.81155 | -55.62118 | 12227 ft | 230 kts | 81° |
| 2026-04-26 22:03 | -34.80876 | -55.60234 | 11860 ft | 223 kts | 80° |
| 2026-04-26 22:03 | -34.80598 | -55.58401 | 11513 ft | 218 kts | 80° |
| 2026-04-26 22:04 | -34.80331 | -55.56600 | 11174 ft | 215 kts | 81° |
| 2026-04-26 22:04 | -34.80069 | -55.54820 | 10837 ft | 213 kts | 81° |
| 2026-04-26 22:04 | -34.79808 | -55.53053 | 10502 ft | 211 kts | 81° |
| 2026-04-26 22:04 | -34.79552 | -55.51329 | 10183 ft | 209 kts | 80° |
| 2026-04-26 22:05 | -34.79293 | -55.49590 | 9860 ft | 208 kts | 80° |
| 2026-04-26 22:05 | -34.79037 | -55.47861 | 9526 ft | 207 kts | 81° |
| 2026-04-26 22:05 | -34.78781 | -55.46143 | 9162 ft | 206 kts | 81° |
| 2026-04-26 22:05 | -34.78527 | -55.44436 | 8817 ft | 205 kts | 80° |
| 2026-04-26 22:06 | -34.78273 | -55.42737 | 8472 ft | 203 kts | 80° |
| 2026-04-26 22:06 | -34.78022 | -55.41051 | 8142 ft | 202 kts | 80° |
| 2026-04-26 22:06 | -34.77772 | -55.39381 | 7825 ft | 200 kts | 80° |
| 2026-04-26 22:06 | -34.77524 | -55.37726 | 7522 ft | 198 kts | 81° |
| 2026-04-26 22:07 | -34.77281 | -55.36103 | 7219 ft | 197 kts | 80° |
| 2026-04-26 22:07 | -34.77036 | -55.34465 | 6917 ft | 197 kts | 81° |
| 2026-04-26 22:07 | -34.76791 | -55.32830 | 6600 ft | 196 kts | 82° |
| 2026-04-26 22:07 | -34.76629 | -55.31750 | 6392 ft | 196 kts | 81° |
| 2026-04-26 22:08 | -34.76303 | -55.29569 | 5947 ft | 195 kts | 80° |
| 2026-04-26 22:08 | -34.76059 | -55.27954 | 5600 ft | 193 kts | 80° |
| 2026-04-26 22:08 | -34.75818 | -55.26356 | 5258 ft | 191 kts | 81° |
| 2026-04-26 22:08 | -34.75579 | -55.24772 | 4930 ft | 190 kts | 80° |
| 2026-04-26 22:09 | -34.75342 | -55.23207 | 4590 ft | 192 kts | 80° |
| 2026-04-26 22:09 | -34.75093 | -55.21582 | 4230 ft | 197 kts | 81° |
| 2026-04-26 22:09 | -34.74853 | -55.19961 | 3875 ft | 198 kts | 81° |
| 2026-04-26 22:09 | -34.74606 | -55.18312 | 3520 ft | 198 kts | 80° |
| 2026-04-26 22:10 | -34.74358 | -55.16679 | 3167 ft | 196 kts | 80° |
| 2026-04-26 22:10 | -34.74116 | -55.15089 | 2994 ft | 184 kts | 79° |
| 2026-04-26 22:10 | -34.73878 | -55.13597 | 2995 ft | 182 kts | 78° |
| 2026-04-26 22:10 | -34.73612 | -55.12020 | 2994 ft | 199 kts | 79° |
| 2026-04-26 22:11 | -34.73368 | -55.10329 | 3011 ft | 213 kts | 80° |
| 2026-04-26 22:11 | -34.73106 | -55.08509 | 3012 ft | 223 kts | 80° |
| 2026-04-26 22:11 | -34.72823 | -55.06625 | 3003 ft | 229 kts | 79° |
| 2026-04-26 22:11 | -34.72530 | -55.04710 | 3007 ft | 231 kts | 79° |
| 2026-04-26 22:12 | -34.72234 | -55.02783 | 3013 ft | 233 kts | 79° |
| 2026-04-26 22:12 | -34.71938 | -55.00847 | 3004 ft | 234 kts | 79° |
| 2026-04-26 22:12 | -34.71641 | -54.98898 | 3005 ft | 235 kts | 79° |
| 2026-04-26 22:12 | -34.71531 | -54.96934 | 2993 ft | 233 kts | 99° |
| 2026-04-26 22:13 | -34.71947 | -54.95074 | 2990 ft | 223 kts | 120° |
| 2026-04-26 22:13 | -34.72752 | -54.93552 | 2989 ft | 206 kts | 140° |
| 2026-04-26 22:13 | -34.73788 | -54.92453 | 2987 ft | 191 kts | 157° |
| 2026-04-26 22:13 | -34.74926 | -54.91778 | 2990 ft | 180 kts | 173° |
| 2026-04-26 22:14 | -34.76114 | -54.91338 | 2997 ft | 178 kts | 174° |
| 2026-04-26 22:14 | -34.77288 | -54.90874 | 2994 ft | 177 kts | 173° |
| 2026-04-26 22:14 | -34.78458 | -54.90548 | 2988 ft | 166 kts | 190° |
| 2026-04-26 22:14 | -34.79540 | -54.90797 | 2792 ft | 148 kts | 212° |
| 2026-04-26 22:15 | -34.80353 | -54.91399 | 2589 ft | 124 kts | 229° |
| 2026-04-26 22:15 | -34.80875 | -54.92120 | 2377 ft | 109 kts | 242° |
| 2026-04-26 22:15 | -34.81202 | -54.92936 | 2132 ft | 103 kts | 254° |
| 2026-04-26 22:15 | -34.81412 | -54.93757 | 1900 ft | 105 kts | 253° |
| 2026-04-26 22:16 | -34.81641 | -54.94606 | 1710 ft | 105 kts | 254° |
| 2026-04-26 22:16 | -34.81854 | -54.95397 | 1690 ft | 94 kts | 254° |
| 2026-04-26 22:16 | -34.82073 | -54.96186 | 1691 ft | 103 kts | 253° |
| 2026-04-26 22:16 | -34.82290 | -54.97033 | 1696 ft | 106 kts | 253° |
| 2026-04-26 22:17 | -34.82516 | -54.97903 | 1709 ft | 110 kts | 254° |
| 2026-04-26 22:17 | -34.82750 | -54.98809 | 1702 ft | 114 kts | 254° |
| 2026-04-26 22:17 | -34.82994 | -54.99742 | 1625 ft | 120 kts | 253° |
| 2026-04-26 22:17 | -34.83245 | -55.00702 | 1461 ft | 117 kts | 253° |
| 2026-04-26 22:18 | -34.83491 | -55.01629 | 1303 ft | 114 kts | 253° |
| 2026-04-26 22:18 | -34.83730 | -55.02537 | 1146 ft | 109 kts | 255° |
| 2026-04-26 22:18 | -34.83946 | -55.03380 | 1014 ft | 106 kts | 254° |
| 2026-04-26 22:18 | -34.84171 | -55.04229 | 873 ft | 104 kts | 255° |
| 2026-04-26 22:19 | -34.84390 | -55.05067 | 740 ft | 103 kts | 254° |
| 2026-04-26 22:19 | -34.84608 | -55.05901 | 622 ft | 104 kts | 255° |
| 2026-04-26 22:19 | -34.84848 | -55.06745 | 447 ft | 107 kts | 252° |
| 2026-04-26 22:19 | -34.85040 | -55.07589 | 326 ft | 100 kts | 257° |
| 2026-04-26 22:20 | -34.85237 | -55.08345 | 199 ft | 91 kts | 254° |
| 2026-04-26 22:20 | -34.85354 | -55.08815 | 126 ft | 88 kts | 252° |
| 2026-04-26 22:20 | -34.85577 | -55.09656 | 98 ft | 60 kts | 252° |
| 2026-04-26 22:20 | -34.85632 | -55.09872 | 97 ft | 12 kts | 256° |
| 2026-04-26 22:21 | -34.85700 | -55.09900 | 96 ft | 17 kts | 163° |
| 2026-04-26 22:21 | -34.85724 | -55.09890 | 95 ft | 0 kts | 161° |
| 2026-04-26 22:22 | -34.85733 | -55.09885 | 95 ft | 3 kts | 160° |
| 2026-04-26 22:22 | -34.85744 | -55.09881 | 95 ft | 0 kts | 160° |
| 2026-04-26 22:23 | -34.85762 | -55.09873 | 95 ft | 5 kts | 160° |
| 2026-04-26 22:23 | -34.85786 | -55.09863 | 95 ft | 3 kts | 161° |
| 2026-04-26 22:23 | -34.85811 | -55.09853 | 95 ft | 4 kts | 161° |
| 2026-04-26 22:23 | -34.85847 | -55.09838 | 95 ft | 7 kts | 166° |
| 2026-04-26 22:24 | -34.85890 | -55.09825 | 95 ft | 7 kts | 165° |
| 2026-04-26 22:24 | -34.85911 | -55.09776 | 95 ft | 10 kts | 70° |
| 2026-04-26 22:24 | -34.85921 | -55.09730 | 95 ft | 3 kts | 206° |
| 2026-04-26 22:24 | -34.85930 | -55.09748 | 95 ft | 0 kts | 273° |
| 2026-04-26 22:25 | -34.85928 | -55.09769 | 95 ft | 0 kts | 251° |